Time;durP1;ratioP1;P1;durP2;ratioP2;P2;SDS_P1;SDS_P2;PMS_P1;PMS_P2;Temp;Humidity;BMP_temperature;BMP_pressure;BME280_temperature;BME280_humidity;BME280_pressure;Samples;Min_cycle;Max_cycle;Signal;HPM_P1;HPM_P2
2020/12/21 00:01:49;;;;;;;52.25;23.25;;;;;;;-0.48;86.68;101685.52;1560151;90;21194;-77
2020/12/21 00:04:17;;;;;;;46.20;23.12;;;;;;;-0.51;86.69;101690.05;1564615;90;21256;-78
2020/12/21 00:06:43;;;;;;;45.78;22.22;;;;;;;-0.51;86.74;101686.64;1556064;90;21212;-78
2020/12/21 00:09:09;;;;;;;47.73;22.32;;;;;;;-0.53;86.73;101688.27;1559456;90;22302;-77
2020/12/21 00:11:41;;;;;;;47.73;24.50;;;;;;;-0.55;86.76;101680.98;1569139;90;21261;-77
2020/12/21 00:14:08;;;;;;;45.98;23.30;;;;;;;-0.56;86.78;101672.49;1545193;90;21268;-77
2020/12/21 00:16:40;;;;;;;48.78;23.65;;;;;;;-0.56;86.77;101672.49;1560064;90;21245;-77
2020/12/21 00:19:08;;;;;;;45.92;22.52;;;;;;;-0.57;86.74;101669.88;1556237;90;21228;-77
2020/12/21 00:21:38;;;;;;;46.60;23.35;;;;;;;-0.58;86.77;101663.93;1559021;90;21266;-78
2020/12/21 00:24:06;;;;;;;41.10;22.02;;;;;;;-0.58;86.80;101669.02;1562794;90;21241;-77
2020/12/21 00:26:32;;;;;;;48.58;24.75;;;;;;;-0.59;86.75;101674.02;1538030;90;21241;-77
2020/12/21 00:28:58;;;;;;;;;;;;;;;-0.60;86.76;101677.36;1548434;90;21256;-77
2020/12/21 00:31:27;;;;;;;49.03;22.50;;;;;;;-0.60;86.82;101675.69;1537103;91;21033;-77
2020/12/21 00:33:55;;;;;;;45.85;22.87;;;;;;;-0.60;86.79;101684.98;1550629;90;21249;-78
2020/12/21 00:36:23;;;;;;;48.35;24.07;;;;;;;-0.63;86.74;101678.09;1546191;90;21298;-77
2020/12/21 00:38:50;;;;;;;45.65;23.05;;;;;;;-0.64;86.73;101681.83;1544062;90;21573;-78
2020/12/21 00:41:19;;;;;;;49.03;22.02;;;;;;;-0.65;86.77;101678.81;1544220;90;22410;-77
2020/12/21 00:43:47;;;;;;;50.78;22.85;;;;;;;-0.65;86.75;101675.01;1546635;90;21268;-77
2020/12/21 00:46:16;;;;;;;49.15;21.82;;;;;;;-0.68;86.76;101680.41;1549136;90;21230;-78
2020/12/21 00:48:43;;;;;;;41.98;21.17;;;;;;;-0.69;86.76;101686.69;1544995;90;21239;-78
2020/12/21 00:51:11;;;;;;;43.28;20.75;;;;;;;-0.71;86.75;101689.16;1547641;90;21245;-78
2020/12/21 00:53:38;;;;;;;43.28;20.90;;;;;;;-0.73;86.74;101685.68;1544675;90;21256;-78
2020/12/21 00:56:05;;;;;;;39.65;21.27;;;;;;;-0.73;86.70;101684.81;1540299;90;21208;-78
2020/12/21 00:58:33;;;;;;;46.63;22.70;;;;;;;-0.75;86.73;101680.93;1541549;90;21864;-78
2020/12/21 01:01:02;;;;;;;44.10;22.73;;;;;;;-0.74;86.74;101677.98;1555688;90;21520;-78
2020/12/21 01:03:28;;;;;;;44.50;23.02;;;;;;;-0.74;86.75;101682.67;1538315;90;21164;-77
2020/12/21 01:05:54;;;;;;;42.73;20.65;;;;;;;-0.73;86.76;101687.34;1538600;90;21166;-77
2020/12/21 01:08:21;;;;;;;44.63;21.90;;;;;;;-0.73;86.77;101685.68;1548741;90;21693;-77
2020/12/21 01:10:47;;;;;;;41.15;20.25;;;;;;;-0.72;86.75;101689.95;1554419;90;21197;-78
2020/12/21 01:13:14;;;;;;;43.65;21.30;;;;;;;-0.73;86.72;101684.41;1557558;90;21189;-77
2020/12/21 01:15:40;;;;;;;44.08;22.52;;;;;;;-0.74;86.74;101685.21;1567302;90;21157;-77
2020/12/21 01:18:06;;;;;;;48.25;23.07;;;;;;;-0.74;86.69;101682.67;1554282;90;21518;-77
2020/12/21 01:20:32;;;;;;;41.02;22.17;;;;;;;-0.76;86.65;101684.27;1541674;90;21137;-77
2020/12/21 01:22:59;;;;;;;52.20;22.62;;;;;;;-0.80;86.59;101679.84;1551904;90;21215;-77
2020/12/21 01:25:25;;;;;;;39.25;20.77;;;;;;;-0.81;86.63;101681.91;1549525;90;21172;-77
2020/12/21 01:27:51;;;;;;;40.65;20.55;;;;;;;-0.80;86.61;101684.92;1541062;90;21158;-77
2020/12/21 01:30:17;;;;;;;42.33;20.00;;;;;;;-0.84;86.59;101680.89;1563672;90;28259;-78
2020/12/21 01:32:44;;;;;;;40.23;19.90;;;;;;;-0.85;86.60;101682.56;1557281;90;21200;-78
2020/12/21 01:35:10;;;;;;;34.33;18.42;;;;;;;-0.88;86.55;101675.20;1551249;90;22023;-78
2020/12/21 01:37:36;;;;;;;51.10;23.52;;;;;;;-0.90;86.57;101677.67;1550064;90;26974;-77
2020/12/21 01:40:05;;;;;;;41.90;21.07;;;;;;;-0.91;86.59;101677.59;1555860;90;21266;-77
2020/12/21 01:42:31;;;;;;;47.25;21.90;;;;;;;-0.93;86.61;101679.19;1556454;90;21208;-77
2020/12/21 01:44:57;;;;;;;45.85;23.02;;;;;;;-0.95;86.62;101665.16;1559163;90;21260;-77
2020/12/21 01:47:24;;;;;;;46.28;24.18;;;;;;;-0.95;86.63;101670.23;1566981;90;22025;-77
2020/12/21 01:49:51;;;;;;;46.25;21.55;;;;;;;-0.97;86.63;101668.02;1555516;90;21243;-77
2020/12/21 01:52:19;;;;;;;40.50;21.25;;;;;;;-0.96;86.66;101672.70;1632730;85;656838;-78
2020/12/21 01:54:50;;;;;;;40.83;20.25;;;;;;;-0.97;86.65;101669.69;1667049;85;21462;-78
2020/12/21 01:57:14;;;;;;;45.00;20.37;;;;;;;-1.00;86.58;101667.87;1663119;85;21153;-78
2020/12/21 01:59:41;;;;;;;38.65;20.85;;;;;;;-1.05;86.51;101667.69;1659084;85;21988;-78
2020/12/21 02:02:07;;;;;;;;;;;;;;;-1.08;86.47;101678.09;1655601;85;21162;-77
2020/12/21 02:04:35;;;;;;;45.63;22.13;;;;;;;-1.11;86.50;101675.41;1666040;85;20277;-78
2020/12/21 02:07:02;;;;;;;55.98;25.00;;;;;;;-1.13;86.55;101673.19;1658165;85;21125;-77
2020/12/21 02:09:29;;;;;;;42.62;21.87;;;;;;;-1.14;86.61;101673.59;1665186;84;21118;-77
2020/12/21 02:11:55;;;;;;;38.08;19.77;;;;;;;-1.15;86.59;101678.20;1659426;84;22373;-77
2020/12/21 02:14:22;;;;;;;40.43;19.48;;;;;;;-1.16;86.55;101676.45;1668298;84;21917;-77
2020/12/21 02:16:48;;;;;;;34.40;17.95;;;;;;;-1.19;86.55;101672.89;1664956;84;21686;-77
2020/12/21 02:19:15;;;;;;;40.58;18.25;;;;;;;-1.21;86.53;101674.09;1658374;85;21181;-77
2020/12/21 02:21:41;;;;;;;28.25;15.48;;;;;;;-1.20;86.58;101669.48;1668895;85;21216;-77
2020/12/21 02:24:07;;;;;;;46.05;22.65;;;;;;;-1.19;86.62;101664.02;1671964;85;21952;-77
2020/12/21 02:26:34;;;;;;;46.65;22.52;;;;;;;-1.18;86.57;101665.75;1669013;85;21696;-77
2020/12/21 02:29:00;;;;;;;42.60;21.00;;;;;;;-1.18;86.60;101665.75;1668217;85;21747;-77
2020/12/21 02:31:27;;;;;;;44.27;21.90;;;;;;;-1.15;86.68;101660.42;1675738;85;21197;-77
2020/12/21 02:33:54;;;;;;;41.40;21.17;;;;;;;-1.14;86.64;101655.83;1681657;85;21236;-78
2020/12/21 02:36:20;;;;;;;46.80;21.42;;;;;;;-1.13;86.64;101660.11;1681260;85;25323;-77
2020/12/21 02:38:46;;;;;;;;;;;;;;;-1.13;86.64;101663.91;1683730;85;21227;-78
2020/12/21 02:41:13;;;;;;;;;;;;;;;-1.13;86.62;101663.91;1679771;85;20551;-77
2020/12/21 02:43:39;;;;;;;39.90;19.48;;;;;;;-1.12;86.62;101666.05;1671166;85;20299;-77
2020/12/21 02:46:14;;;;;;;49.90;23.02;;;;;;;-1.15;86.67;101657.02;1676634;85;21219;-77
2020/12/21 02:48:41;;;;;;;38.85;19.85;;;;;;;-1.11;86.70;101665.25;1672049;83;21236;-77
2020/12/21 02:51:07;;;;;;;;;;;;;;;-1.10;86.69;101664.45;1679145;85;21234;-77
2020/12/21 02:53:33;;;;;;;;;;;;;;;-1.12;86.68;101664.38;1675378;85;20310;-77
2020/12/21 02:55:59;;;;;;;;;;;;;;;-1.09;86.79;101663.66;1678061;85;20939;-77
2020/12/21 02:58:25;;;;;;;38.42;18.85;;;;;;;-1.05;86.87;101656.66;1681956;85;20400;-78
2020/12/21 03:00:52;;;;;;;41.08;20.05;;;;;;;-1.00;86.91;101661.53;1681478;85;27023;-77
2020/12/21 03:03:18;;;;;;;40.50;20.23;;;;;;;-0.97;86.88;101654.06;1681877;85;21204;-77
2020/12/21 03:05:46;;;;;;;45.55;22.40;;;;;;;-0.93;86.86;101655.94;1681948;85;21183;-77
2020/12/21 03:08:12;;;;;;;51.33;24.02;;;;;;;-0.86;86.90;101660.91;1681109;84;21171;-77
2020/12/21 03:10:39;;;;;;;42.38;21.62;;;;;;;-0.81;86.90;101655.64;1675119;84;21220;-77
2020/12/21 03:13:06;;;;;;;45.45;24.07;;;;;;;-0.77;86.91;101654.59;1670740;85;21847;-77
2020/12/21 03:15:32;;;;;;;40.15;21.15;;;;;;;-0.70;86.98;101652.81;1620727;87;21247;-77
2020/12/21 03:17:59;;;;;;;45.75;24.37;;;;;;;-0.64;86.98;101642.46;1606749;89;21226;-77
2020/12/21 03:20:25;;;;;;;39.98;21.95;;;;;;;-0.58;86.97;101637.66;1645550;85;21624;-78
2020/12/21 03:22:51;;;;;;;41.55;22.70;;;;;;;-0.53;87.01;101638.73;1616744;87;21223;-78
2020/12/21 03:25:18;;;;;;;40.20;21.05;;;;;;;-0.47;87.03;101639.86;1609842;87;21260;-78
2020/12/21 03:27:45;;;;;;;41.10;20.92;;;;;;;-0.41;87.01;101642.67;1592106;88;39513;-78
2020/12/21 03:30:12;;;;;;;39.50;21.55;;;;;;;-0.35;87.03;101635.72;1605280;88;21653;-77
2020/12/21 03:32:38;;;;;;;;;;;;;;;-0.28;87.08;101626.30;1615399;86;21706;-77
2020/12/21 03:35:05;;;;;;;;;;;;;;;-0.20;87.09;101636.40;1622482;86;20247;-77
2020/12/21 03:37:32;;;;;;;36.42;18.32;;;;;;;-0.13;87.07;101637.54;1617277;86;21273;-77
2020/12/21 03:40:04;;;;;;;33.60;18.25;;;;;;;-0.07;87.08;101633.99;1616037;87;21257;-77
2020/12/21 03:42:31;;;;;;;43.17;21.87;;;;;;;0.00;87.10;101634.73;1597545;86;21270;-77
2020/12/21 03:44:57;;;;;;;45.23;22.95;;;;;;;0.05;87.08;101633.22;1593490;88;26826;-77
2020/12/21 03:47:23;;;;;;;45.43;23.02;;;;;;;0.11;87.07;101633.88;1608774;88;22283;-78
2020/12/21 03:49:50;;;;;;;39.92;20.60;;;;;;;0.16;87.06;101638.77;1598551;87;21239;-78
2020/12/21 03:52:16;;;;;;;38.60;20.00;;;;;;;0.18;87.05;101638.42;1605907;88;21248;-78
2020/12/21 03:54:42;;;;;;;37.03;19.10;;;;;;;0.21;87.04;101634.73;1615595;88;21224;-77
2020/12/21 03:57:09;;;;;;;32.33;17.80;;;;;;;0.25;87.02;101636.20;1598421;88;21743;-77
2020/12/21 03:59:35;;;;;;;31.85;18.17;;;;;;;0.27;87.00;101634.59;1607824;88;21227;-77
2020/12/21 04:02:01;;;;;;;37.98;20.77;;;;;;;0.31;87.01;101626.69;1608918;88;21243;-78
2020/12/21 04:04:27;;;;;;;53.45;23.47;;;;;;;0.37;87.03;101620.99;1611609;87;21212;-78
2020/12/21 04:06:54;;;;;;;48.38;23.25;;;;;;;0.40;87.04;101629.62;1606407;87;21211;-78
2020/12/21 04:09:20;;;;;;;50.78;24.00;;;;;;;0.42;87.02;101628.01;1609936;87;21245;-77
2020/12/21 04:11:46;;;;;;;38.17;20.70;;;;;;;0.45;87.02;101636.17;1612687;88;22016;-77
2020/12/21 04:14:13;;;;;;;35.65;20.20;;;;;;;0.47;87.04;101640.52;1604815;88;22104;-77
2020/12/21 04:16:39;;;;;;;34.10;18.98;;;;;;;0.50;87.05;101633.01;1609330;87;21245;-77
2020/12/21 04:19:05;;;;;;;28.80;14.98;;;;;;;0.53;87.03;101637.33;1620469;87;21220;-77
2020/12/21 04:21:32;;;;;;;32.65;17.55;;;;;;;0.56;86.95;101639.59;1614920;87;21980;-77
2020/12/21 04:23:58;;;;;;;39.48;22.27;;;;;;;0.61;87.06;101635.96;1609491;87;21276;-77
2020/12/21 04:26:24;;;;;;;44.58;21.73;;;;;;;0.63;87.04;101641.58;1612977;87;21654;-78
2020/12/21 04:28:51;;;;;;;41.25;22.52;;;;;;;0.67;87.06;101638.75;1612619;87;21240;-77
2020/12/21 04:31:17;;;;;;;41.75;21.65;;;;;;;0.69;87.03;101640.09;1606612;87;21235;-77
2020/12/21 04:33:43;;;;;;;34.27;19.27;;;;;;;0.70;87.05;101636.73;1612948;88;21200;-78
2020/12/21 04:36:11;;;;;;;35.55;18.57;;;;;;;0.69;87.02;101637.14;1615089;87;21203;-78
2020/12/21 04:38:40;;;;;;;34.83;18.17;;;;;;;0.70;87.03;101644.38;1616673;87;21288;-78
2020/12/21 04:41:08;;;;;;;30.27;15.85;;;;;;;0.71;87.07;101644.84;1598641;87;21291;-78
2020/12/21 04:43:34;;;;;;;31.30;17.40;;;;;;;0.74;87.08;101647.11;1622878;86;22256;-78
2020/12/21 04:46:06;;;;;;;37.80;21.15;;;;;;;0.78;87.10;101646.42;1619145;88;21218;-77
2020/12/21 04:48:39;;;;;;;40.30;21.75;;;;;;;0.80;87.04;101651.58;1623003;86;21601;-77
2020/12/21 04:51:07;;;;;;;40.20;20.77;;;;;;;0.82;87.07;101653.38;1618530;86;21229;-77
2020/12/21 04:53:33;;;;;;;45.00;23.02;;;;;;;0.81;87.09;101647.81;1623663;86;21219;-77
2020/12/21 04:56:01;;;;;;;40.17;20.88;;;;;;;0.84;87.07;101650.89;1619214;86;21243;-77
2020/12/21 04:58:27;;;;;;;34.38;18.80;;;;;;;0.83;87.05;101655.11;1616539;87;21239;-77
2020/12/21 05:00:53;;;;;;;34.30;18.55;;;;;;;0.84;87.07;101660.67;1611665;88;21248;-78
2020/12/21 05:03:19;;;;;;;35.58;18.27;;;;;;;0.84;87.06;101658.13;1609775;88;21719;-77
2020/12/21 05:05:46;;;;;;;30.45;17.27;;;;;;;0.86;87.07;101663.28;1620351;86;21798;-77
2020/12/21 05:08:22;;;;;;;29.45;16.23;;;;;;;0.89;87.09;101657.91;1610763;86;21187;-77
2020/12/21 05:11:04;;;;;;;37.80;20.52;;;;;;;0.90;87.09;101658.77;1614640;88;21218;-78
2020/12/21 05:13:35;;;;;;;40.23;20.80;;;;;;;0.94;87.11;101659.36;1660999;84;21215;-78
2020/12/21 05:16:02;;;;;;;42.48;21.05;;;;;;;0.96;87.11;101659.02;1675842;84;21228;-78
2020/12/21 05:18:31;;;;;;;46.90;22.85;;;;;;;0.98;87.11;101657.00;1662157;85;21227;-77
2020/12/21 05:21:07;;;;;;;36.30;20.75;;;;;;;0.98;87.13;101657.40;1661815;85;21216;-78
2020/12/21 05:23:34;;;;;;;32.98;17.87;;;;;;;0.99;87.13;101656.59;1656363;85;21240;-77
2020/12/21 05:26:09;;;;;;;33.42;18.67;;;;;;;0.99;87.09;101655.32;1662510;85;21847;-78
2020/12/21 05:28:38;;;;;;;34.55;18.15;;;;;;;1.00;87.09;101657.06;1651714;84;21230;-78
2020/12/21 05:31:10;;;;;;;35.52;18.57;;;;;;;1.02;87.10;101658.39;1630799;85;21750;-78
2020/12/21 05:33:41;;;;;;;32.15;18.32;;;;;;;1.04;87.14;101659.32;1667375;84;22333;-77
2020/12/21 05:36:11;;;;;;;36.70;20.82;;;;;;;1.07;87.13;101660.68;1662295;84;21240;-77
2020/12/21 05:38:38;;;;;;;40.00;20.20;;;;;;;1.08;87.13;101663.69;1655763;83;21256;-78
2020/12/21 05:41:12;;;;;;;38.75;19.60;;;;;;;1.10;87.15;101659.12;1669400;85;21992;-78
2020/12/21 05:43:40;;;;;;;34.92;20.23;;;;;;;1.10;87.15;101656.98;1664118;84;21204;-77
2020/12/21 05:46:13;;;;;;;33.67;18.95;;;;;;;1.10;87.17;101659.12;1649988;85;21244;-77
2020/12/21 05:48:49;;;;;;;35.68;18.62;;;;;;;1.12;87.18;101663.00;1658639;84;21220;-78
2020/12/21 05:51:23;;;;;;;29.23;15.40;;;;;;;1.12;87.18;101664.28;1663867;85;21516;-78
2020/12/21 05:53:56;;;;;;;29.20;16.02;;;;;;;1.11;87.15;101662.14;1662405;84;21686;-78
2020/12/21 05:56:24;;;;;;;28.52;16.55;;;;;;;1.12;87.14;101665.15;1662609;85;21260;-78
2020/12/21 05:58:52;;;;;;;29.85;16.62;;;;;;;1.16;87.18;101664.86;1667854;84;21185;-78
2020/12/21 06:01:19;;;;;;;36.00;19.82;;;;;;;1.18;87.18;101670.89;1664288;85;21204;-78
2020/12/21 06:03:47;;;;;;;;;;;;;;;1.20;87.18;101672.69;1661527;84;21204;-78
2020/12/21 06:06:20;;;;;;;35.03;18.73;;;;;;;1.22;87.18;101676.16;1656804;85;22000;-78
2020/12/21 06:08:52;;;;;;;43.28;21.17;;;;;;;1.23;87.17;101671.53;1665243;83;21230;-77
2020/12/21 06:11:32;;;;;;;35.13;19.35;;;;;;;1.24;87.18;101670.72;1672611;83;21221;-77
2020/12/21 06:14:12;;;;;;;27.65;15.60;;;;;;;1.23;87.18;101670.26;1660905;85;21224;-78
2020/12/21 06:16:39;;;;;;;26.93;15.45;;;;;;;1.23;87.18;101671.53;1662185;83;21638;-78
2020/12/21 06:19:08;;;;;;;26.80;15.88;;;;;;;1.24;87.18;101664.35;1669441;84;21895;-78
2020/12/21 06:21:38;;;;;;;38.40;14.93;;;;;;;1.24;87.20;101669.45;1671481;84;21160;-78
2020/12/21 06:24:20;;;;;;;30.37;16.00;;;;;;;1.26;87.18;101670.78;1672046;84;21109;-79
2020/12/21 06:26:47;;;;;;;32.30;18.77;;;;;;;1.28;87.23;101668.75;1660664;85;21141;-79
2020/12/21 06:29:20;;;;;;;35.60;18.17;;;;;;;1.30;87.23;101662.45;1660634;84;21213;-79
2020/12/21 06:31:53;;;;;;;34.78;19.32;;;;;;;1.32;87.22;101667.19;1664675;84;21287;-79
2020/12/21 06:34:39;;;;;;;33.23;19.85;;;;;;;1.31;87.20;101659.09;1662795;84;21153;-79
2020/12/21 06:37:16;;;;;;;33.15;18.10;;;;;;;1.32;87.21;101661.70;1657109;84;21124;-79
2020/12/21 06:39:41;;;;;;;30.10;16.00;;;;;;;1.33;87.25;101667.25;1667768;84;21141;-79
2020/12/21 06:42:13;;;;;;;23.73;14.83;;;;;;;1.33;87.21;101668.53;1657736;84;26764;-79
2020/12/21 06:44:42;;;;;;;24.80;15.05;;;;;;;1.33;87.21;101672.75;1655758;85;22012;-79
2020/12/21 06:47:11;;;;;;;26.07;15.98;;;;;;;1.35;87.23;101668.99;1665046;84;22229;-79
2020/12/21 06:49:39;;;;;;;23.02;15.45;;;;;;;1.37;87.23;101671.19;1657293;84;21227;-78
2020/12/21 06:52:05;;;;;;;31.75;17.90;;;;;;;1.38;87.21;101672.93;1663135;85;21211;-79
2020/12/21 06:54:32;;;;;;;32.45;18.65;;;;;;;1.42;87.25;101674.78;1629636;86;21271;-79
2020/12/21 06:56:58;;;;;;;33.80;19.32;;;;;;;1.45;87.26;101679.59;1669702;85;21516;-79
2020/12/21 06:59:27;;;;;;;37.63;20.65;;;;;;;1.46;87.26;101677.91;1648311;85;27190;-79
2020/12/21 07:01:55;;;;;;;36.30;19.40;;;;;;;1.46;87.25;101674.09;1666032;84;21193;-78
2020/12/21 07:04:27;;;;;;;29.57;17.77;;;;;;;1.47;87.26;101683.07;1656842;84;21169;-78
2020/12/21 07:06:54;;;;;;;31.20;18.42;;;;;;;1.47;87.25;101684.34;1618215;86;21193;-77
2020/12/21 07:09:26;;;;;;;35.73;20.12;;;;;;;1.50;87.27;101691.23;1657979;84;21454;-77
2020/12/21 07:11:54;;;;;;;31.42;18.80;;;;;;;1.50;87.28;101693.38;1666535;84;21233;-76
2020/12/21 07:14:22;;;;;;;34.45;20.82;;;;;;;1.52;87.27;101690.48;1660771;84;21268;-76
2020/12/21 07:17:09;;;;;;;37.90;20.43;;;;;;;1.53;87.27;101697.32;1615394;86;21231;-76
2020/12/21 07:19:39;;;;;;;34.40;20.12;;;;;;;1.55;87.29;101688.45;1658353;84;21219;-77
2020/12/21 07:22:07;;;;;;;34.48;19.20;;;;;;;1.57;87.30;101687.67;1660340;85;21986;-76
2020/12/21 07:24:36;;;;;;;38.35;19.57;;;;;;;1.59;87.32;101687.73;1660888;84;21335;-76
2020/12/21 07:27:03;;;;;;;37.23;20.30;;;;;;;1.60;87.28;101687.79;1635137;86;21223;-76
2020/12/21 07:29:34;;;;;;;35.80;21.42;;;;;;;1.61;87.27;101687.38;1651141;85;21245;-77
2020/12/21 07:32:00;;;;;;;41.83;21.93;;;;;;;1.61;87.28;101679.33;1625060;86;21197;-77
2020/12/21 07:34:27;;;;;;;45.48;23.65;;;;;;;1.62;87.29;101678.52;1628138;87;21635;-77
2020/12/21 07:36:54;;;;;;;37.28;22.45;;;;;;;1.64;87.32;101681.99;1628638;87;21273;-77
2020/12/21 07:39:21;;;;;;;36.83;21.15;;;;;;;1.68;87.35;101677.01;1629421;86;21693;-77
2020/12/21 07:41:52;;;;;;;33.78;19.23;;;;;;;1.68;87.35;101677.01;1628808;87;21239;-77
2020/12/21 07:44:26;;;;;;;28.38;18.15;;;;;;;1.68;87.32;101682.98;1637864;86;21207;-77
2020/12/21 07:47:07;;;;;;;26.90;15.88;;;;;;;1.69;87.29;101683.44;1633471;86;21226;-77
2020/12/21 07:49:37;;;;;;;26.35;16.27;;;;;;;1.68;87.32;101684.25;1636832;86;21175;-77
2020/12/21 07:52:07;;;;;;;28.05;16.32;;;;;;;1.71;87.32;101689.46;1631068;87;21134;-77
2020/12/21 07:54:40;;;;;;;35.95;19.35;;;;;;;1.74;87.33;101686.16;1632595;87;21120;-78
2020/12/21 07:57:07;;;;;;;38.95;19.95;;;;;;;1.77;87.34;101678.63;1630940;86;21162;-77
2020/12/21 07:59:34;;;;;;;30.88;19.85;;;;;;;1.78;87.36;101676.12;1631404;87;21452;-78
2020/12/21 08:02:04;;;;;;;34.80;20.23;;;;;;;1.80;87.38;101671.95;1629094;86;21131;-77
2020/12/21 08:04:30;;;;;;;35.95;18.35;;;;;;;1.81;87.36;101674.97;1635236;86;21152;-77
2020/12/21 08:07:10;;;;;;;27.75;16.95;;;;;;;1.83;87.37;101673.34;1630246;86;21454;-77
2020/12/21 08:09:40;;;;;;;26.27;15.78;;;;;;;1.85;87.36;101676.81;1630303;86;21170;-77
2020/12/21 08:12:12;;;;;;;25.55;15.78;;;;;;;1.88;87.37;101691.36;1627338;86;138711;-77
2020/12/21 08:14:38;;;;;;;25.85;15.53;;;;;;;1.89;87.37;101690.55;1632401;87;21177;-77
2020/12/21 08:17:16;;;;;;;25.20;15.48;;;;;;;1.91;87.35;101693.62;1630546;87;25943;-77
2020/12/21 08:19:55;;;;;;;31.48;18.30;;;;;;;1.94;87.36;101690.31;1626963;86;21215;-77
2020/12/21 08:22:23;;;;;;;29.52;17.62;;;;;;;1.96;87.37;101684.86;1624869;87;21215;-77
2020/12/21 08:25:11;;;;;;;33.40;20.43;;;;;;;2.01;87.41;101692.27;1600807;87;21618;-77
2020/12/21 08:27:50;;;;;;;34.73;21.37;;;;;;;2.03;87.40;101697.42;1619301;86;21248;-78
2020/12/21 08:30:24;;;;;;;27.42;18.52;;;;;;;2.04;87.40;101700.03;1612768;87;21260;-78
2020/12/21 08:32:52;;;;;;;29.52;17.95;;;;;;;2.06;87.43;101698.41;1612211;87;21232;-78
2020/12/21 08:35:27;;;;;;;21.17;16.15;;;;;;;2.09;87.39;101699.76;1618280;87;21199;-78
2020/12/21 08:38:05;;;;;;;27.60;17.45;;;;;;;2.13;87.45;101699.46;1614488;87;21232;-78
2020/12/21 08:40:32;;;;;;;26.65;16.75;;;;;;;2.16;87.45;101697.89;1618757;87;21223;-78
2020/12/21 08:43:00;;;;;;;26.45;16.70;;;;;;;2.22;87.46;101702.34;1621118;86;21255;-78
2020/12/21 08:45:26;;;;;;;30.52;19.12;;;;;;;2.24;87.42;101706.69;1625144;86;21229;-78
2020/12/21 08:47:52;;;;;;;32.75;20.12;;;;;;;2.27;87.44;101707.20;1626887;86;21657;-77
2020/12/21 08:50:19;;;;;;;39.25;21.65;;;;;;;2.30;87.41;101699.65;1614201;86;21251;-78
2020/12/21 08:52:49;;;;;;;40.70;21.70;;;;;;;2.32;87.43;101715.48;1619985;86;21200;-78
2020/12/21 08:55:16;;;;;;;31.07;19.52;;;;;;;2.34;87.42;101715.53;1624991;86;21535;-78
2020/12/21 08:57:42;;;;;;;33.65;17.87;;;;;;;2.38;87.44;101715.23;1628904;86;21255;-78
2020/12/21 09:00:08;;;;;;;31.10;19.40;;;;;;;2.38;87.41;101713.55;1632050;85;21597;-77
2020/12/21 09:02:34;;;;;;;30.25;19.32;;;;;;;2.41;87.42;101716.61;1621854;88;21218;-77
2020/12/21 09:05:03;;;;;;;30.90;17.77;;;;;;;2.44;87.41;101720.55;1622278;88;21203;-78
2020/12/21 09:07:29;;;;;;;30.00;18.55;;;;;;;2.47;87.43;101718.11;1620165;88;21246;-77
2020/12/21 09:09:55;;;;;;;30.12;19.02;;;;;;;2.51;87.45;101718.27;1621666;88;21196;-77
2020/12/21 09:12:21;;;;;;;35.83;21.68;;;;;;;2.53;87.42;101716.62;1625116;86;21216;-78
2020/12/21 09:14:48;;;;;;;36.33;21.62;;;;;;;2.58;87.48;101715.52;1621658;86;21677;-78
2020/12/21 09:17:14;;;;;;;32.17;20.60;;;;;;;2.62;87.48;101710.94;1620171;88;21780;-78
2020/12/21 09:19:40;;;;;;;32.00;18.92;;;;;;;2.64;87.47;101711.45;1623008;86;21748;-78
2020/12/21 09:22:06;;;;;;;32.08;17.87;;;;;;;2.68;87.46;101717.94;1665929;85;21228;-78
2020/12/21 09:24:33;;;;;;;32.42;18.32;;;;;;;2.69;87.44;101716.72;1669284;84;21192;-78
2020/12/21 09:26:59;;;;;;;29.92;17.15;;;;;;;2.71;87.43;101709.97;1625841;86;22542;-77
2020/12/21 09:29:27;;;;;;;26.85;17.35;;;;;;;2.75;87.47;101713.50;1661356;84;21233;-78
2020/12/21 09:31:54;;;;;;;28.00;17.62;;;;;;;2.78;87.47;101715.74;1659990;85;21805;-78
2020/12/21 09:34:20;;;;;;;26.45;17.92;;;;;;;2.83;87.44;101715.90;1660299;85;21677;-77
2020/12/21 09:36:46;;;;;;;30.17;19.12;;;;;;;2.87;87.41;101719.02;1662751;85;21219;-77
2020/12/21 09:39:13;;;;;;;31.80;21.20;;;;;;;2.88;87.41;101715.23;1663337;85;22418;-78
2020/12/21 09:41:39;;;;;;;34.78;21.60;;;;;;;2.90;87.40;101713.59;1664128;85;21716;-78
2020/12/21 09:44:06;;;;;;;35.78;20.55;;;;;;;2.94;87.43;101720.95;1655912;84;21593;-77
2020/12/21 09:46:32;;;;;;;27.87;20.02;;;;;;;2.95;87.43;101720.13;1662156;85;21248;-78
2020/12/21 09:49:03;;;;;;;27.00;18.55;;;;;;;2.99;87.43;101722.84;1663357;84;21240;-78
2020/12/21 09:51:27;;;;;;;28.10;17.80;;;;;;;3.04;87.44;101714.45;1655329;85;21651;-77
2020/12/21 09:53:53;;;;;;;25.70;17.77;;;;;;;3.08;87.47;101721.41;1656461;85;21192;-78
2020/12/21 09:56:19;;;;;;;27.82;18.17;;;;;;;3.13;87.47;101715.59;1654434;85;21166;-77
2020/12/21 09:58:46;;;;;;;33.30;20.72;;;;;;;3.18;87.51;101710.63;1659735;85;21198;-77
2020/12/21 10:01:13;;;;;;;32.40;19.82;;;;;;;3.23;87.46;101709.95;1656072;85;21744;-78
2020/12/21 10:03:41;;;;;;;37.30;21.37;;;;;;;3.27;87.45;101707.95;1659673;85;21217;-77
2020/12/21 10:06:12;;;;;;;39.45;23.18;;;;;;;3.27;87.44;101704.11;1666871;84;21240;-78
2020/12/21 10:08:40;;;;;;;34.65;21.00;;;;;;;3.33;87.45;101710.69;1659377;85;21755;-79
2020/12/21 10:11:07;;;;;;;35.63;19.25;;;;;;;3.39;87.46;101709.15;1659217;85;21577;-78
2020/12/21 10:13:33;;;;;;;34.45;21.07;;;;;;;3.41;87.40;101698.56;1671552;84;21192;-79
2020/12/21 10:16:00;;;;;;;28.90;19.25;;;;;;;3.42;87.39;101711.80;1647889;85;21234;-79
2020/12/21 10:18:27;;;;;;;31.90;20.60;;;;;;;3.45;87.42;101699.98;1660631;84;21359;-78
2020/12/21 10:20:53;;;;;;;34.92;20.65;;;;;;;3.50;87.43;101702.67;1658685;83;21187;-78
2020/12/21 10:23:19;;;;;;;35.60;23.73;;;;;;;3.53;87.44;101697.66;1664116;85;21712;-78
2020/12/21 10:25:46;;;;;;;34.92;23.32;;;;;;;3.56;87.43;101691.35;1657710;85;21236;-78
2020/12/21 10:28:13;;;;;;;40.10;23.80;;;;;;;3.58;87.41;101694.41;1669962;83;21231;-77
2020/12/21 10:30:39;;;;;;;40.60;25.50;;;;;;;3.60;87.42;101685.51;1672981;83;21236;-78
2020/12/21 10:33:05;;;;;;;36.53;24.07;;;;;;;3.63;87.42;101689.44;1667460;85;21211;-77
2020/12/21 10:35:31;;;;;;;37.00;21.57;;;;;;;3.65;87.45;101692.45;1669781;85;21693;-77
2020/12/21 10:37:58;;;;;;;33.23;21.97;;;;;;;3.69;87.44;101696.39;1674992;83;21192;-77
2020/12/21 10:40:24;;;;;;;31.97;22.30;;;;;;;3.72;87.46;101693.51;1673585;83;21432;-77
2020/12/21 10:42:50;;;;;;;34.33;21.82;;;;;;;3.76;87.50;101699.58;1677014;83;21334;-77
2020/12/21 10:45:19;;;;;;;36.93;22.42;;;;;;;3.82;87.55;101699.34;1686968;83;21224;-77
2020/12/21 10:47:46;;;;;;;42.03;24.32;;;;;;;3.88;87.54;101702.08;1683693;83;21211;-77
2020/12/21 10:50:12;;;;;;;44.90;25.62;;;;;;;3.93;87.50;101706.92;1674468;85;21176;-76
2020/12/21 10:52:38;;;;;;;36.50;23.67;;;;;;;3.97;87.51;101697.64;1673830;85;22220;-76
2020/12/21 10:55:04;;;;;;;39.58;22.87;;;;;;;3.99;87.49;101693.44;1674787;83;21653;-76
2020/12/21 10:57:31;;;;;;;35.58;22.87;;;;;;;4.03;87.46;101687.58;1667793;83;21186;-76
2020/12/21 10:59:57;;;;;;;32.65;22.32;;;;;;;4.04;87.42;101693.16;1680085;85;21235;-77
2020/12/21 11:02:23;;;;;;;32.30;21.17;;;;;;;4.05;87.38;101690.18;1667346;83;21188;-77
2020/12/21 11:04:50;;;;;;;31.80;21.48;;;;;;;4.07;87.39;101691.09;1679406;83;22073;-77
2020/12/21 11:07:16;;;;;;;36.80;23.30;;;;;;;4.09;87.40;101689.44;1685674;83;21224;-77
2020/12/21 11:09:42;;;;;;;37.35;23.67;;;;;;;4.12;87.41;101696.80;1675746;83;21577;-78
2020/12/21 11:12:08;;;;;;;37.53;23.60;;;;;;;4.14;87.39;101687.46;1671506;83;21193;-76
2020/12/21 11:14:35;;;;;;;37.65;23.35;;;;;;;4.13;87.36;101690.84;1672275;85;21224;-76
2020/12/21 11:17:01;;;;;;;35.20;22.45;;;;;;;4.15;87.42;101681.52;1683283;83;21688;-76
2020/12/21 11:19:27;;;;;;;34.83;21.55;;;;;;;4.18;87.41;101690.53;1672956;85;21235;-77
2020/12/21 11:21:54;;;;;;;30.95;21.37;;;;;;;4.20;87.39;101688.01;1679300;85;21200;-77